sensor_id;sensor_type;location;lat;lon;timestamp;P1;durP1;ratioP1;P2;durP2;ratioP2
15358;SDS011;7779;49.596;11.070;2024-03-08T00:00:15;15.13;;;10.63;;
15358;SDS011;7779;49.596;11.070;2024-03-08T00:02:43;13.87;;;10.23;;
15358;SDS011;7779;49.596;11.070;2024-03-08T00:05:11;13.30;;;9.63;;
15358;SDS011;7779;49.596;11.070;2024-03-08T00:07:38;12.80;;;9.13;;
15358;SDS011;7779;49.596;11.070;2024-03-08T00:10:08;12.57;;;9.80;;
15358;SDS011;7779;49.596;11.070;2024-03-08T00:12:36;12.87;;;9.50;;
15358;SDS011;7779;49.596;11.070;2024-03-08T00:15:03;12.77;;;9.23;;
15358;SDS011;7779;49.596;11.070;2024-03-08T00:17:29;14.80;;;9.77;;
15358;SDS011;7779;49.596;11.070;2024-03-08T00:19:56;15.57;;;9.43;;
15358;SDS011;7779;49.596;11.070;2024-03-08T00:22:22;12.33;;;9.80;;
15358;SDS011;7779;49.596;11.070;2024-03-08T00:24:48;13.43;;;9.63;;
15358;SDS011;7779;49.596;11.070;2024-03-08T00:27:16;13.67;;;9.97;;
15358;SDS011;7779;49.596;11.070;2024-03-08T00:29:42;13.93;;;10.30;;
15358;SDS011;7779;49.596;11.070;2024-03-08T00:32:07;15.57;;;10.27;;
15358;SDS011;7779;49.596;11.070;2024-03-08T00:34:36;14.33;;;10.37;;
15358;SDS011;7779;49.596;11.070;2024-03-08T00:37:03;14.53;;;10.17;;
15358;SDS011;7779;49.596;11.070;2024-03-08T00:39:29;14.80;;;10.13;;
15358;SDS011;7779;49.596;11.070;2024-03-08T00:41:55;15.73;;;11.13;;
15358;SDS011;7779;49.596;11.070;2024-03-08T00:44:20;14.20;;;11.07;;
15358;SDS011;7779;49.596;11.070;2024-03-08T00:46:46;14.30;;;10.10;;
15358;SDS011;7779;49.596;11.070;2024-03-08T00:49:12;13.80;;;10.63;;
15358;SDS011;7779;49.596;11.070;2024-03-08T00:51:37;14.97;;;10.60;;
15358;SDS011;7779;49.596;11.070;2024-03-08T00:54:03;12.27;;;9.30;;
15358;SDS011;7779;49.596;11.070;2024-03-08T00:56:29;14.97;;;10.73;;
15358;SDS011;7779;49.596;11.070;2024-03-08T00:58:55;14.30;;;10.87;;
15358;SDS011;7779;49.596;11.070;2024-03-08T01:01:21;14.43;;;10.80;;
15358;SDS011;7779;49.596;11.070;2024-03-08T01:03:47;11.70;;;9.73;;
15358;SDS011;7779;49.596;11.070;2024-03-08T01:06:13;13.87;;;10.33;;
15358;SDS011;7779;49.596;11.070;2024-03-08T01:08:39;10.73;;;8.60;;
15358;SDS011;7779;49.596;11.070;2024-03-08T01:11:07;14.80;;;10.47;;
15358;SDS011;7779;49.596;11.070;2024-03-08T01:13:34;15.53;;;10.60;;
15358;SDS011;7779;49.596;11.070;2024-03-08T01:16:01;14.00;;;10.60;;
15358;SDS011;7779;49.596;11.070;2024-03-08T01:18:26;13.83;;;10.23;;
15358;SDS011;7779;49.596;11.070;2024-03-08T01:20:52;15.53;;;11.27;;
15358;SDS011;7779;49.596;11.070;2024-03-08T01:23:18;13.43;;;10.10;;
15358;SDS011;7779;49.596;11.070;2024-03-08T01:25:43;12.60;;;10.10;;
15358;SDS011;7779;49.596;11.070;2024-03-08T01:28:09;12.27;;;9.50;;
15358;SDS011;7779;49.596;11.070;2024-03-08T01:30:35;14.80;;;10.03;;
15358;SDS011;7779;49.596;11.070;2024-03-08T01:33:02;14.00;;;9.83;;
15358;SDS011;7779;49.596;11.070;2024-03-08T01:35:28;13.97;;;9.70;;
15358;SDS011;7779;49.596;11.070;2024-03-08T01:37:54;13.77;;;10.03;;
15358;SDS011;7779;49.596;11.070;2024-03-08T01:40:20;12.60;;;9.50;;
15358;SDS011;7779;49.596;11.070;2024-03-08T01:42:45;13.30;;;9.30;;
15358;SDS011;7779;49.596;11.070;2024-03-08T01:45:13;13.07;;;9.63;;
15358;SDS011;7779;49.596;11.070;2024-03-08T01:47:38;15.93;;;9.93;;
15358;SDS011;7779;49.596;11.070;2024-03-08T01:50:05;13.00;;;9.43;;
15358;SDS011;7779;49.596;11.070;2024-03-08T01:52:32;14.17;;;10.20;;
15358;SDS011;7779;49.596;11.070;2024-03-08T01:54:59;11.47;;;8.63;;
15358;SDS011;7779;49.596;11.070;2024-03-08T01:57:29;13.87;;;10.10;;
15358;SDS011;7779;49.596;11.070;2024-03-08T01:59:58;11.43;;;8.33;;
15358;SDS011;7779;49.596;11.070;2024-03-08T02:02:34;14.20;;;9.80;;
15358;SDS011;7779;49.596;11.070;2024-03-08T02:05:02;12.17;;;9.53;;
15358;SDS011;7779;49.596;11.070;2024-03-08T02:07:29;11.63;;;9.20;;
15358;SDS011;7779;49.596;11.070;2024-03-08T02:09:54;13.70;;;10.00;;
15358;SDS011;7779;49.596;11.070;2024-03-08T02:12:20;12.57;;;9.07;;
15358;SDS011;7779;49.596;11.070;2024-03-08T02:14:46;13.73;;;9.70;;
15358;SDS011;7779;49.596;11.070;2024-03-08T02:17:12;12.83;;;9.23;;
15358;SDS011;7779;49.596;11.070;2024-03-08T02:19:38;13.67;;;9.23;;
15358;SDS011;7779;49.596;11.070;2024-03-08T02:22:04;10.60;;;8.60;;
15358;SDS011;7779;49.596;11.070;2024-03-08T02:24:31;14.97;;;10.17;;
15358;SDS011;7779;49.596;11.070;2024-03-08T02:26:57;12.77;;;9.23;;
15358;SDS011;7779;49.596;11.070;2024-03-08T02:29:23;15.57;;;10.33;;
15358;SDS011;7779;49.596;11.070;2024-03-08T02:31:52;13.47;;;9.60;;
15358;SDS011;7779;49.596;11.070;2024-03-08T02:34:18;12.53;;;9.40;;
15358;SDS011;7779;49.596;11.070;2024-03-08T02:36:43;12.57;;;9.87;;
15358;SDS011;7779;49.596;11.070;2024-03-08T02:39:09;12.20;;;9.33;;
15358;SDS011;7779;49.596;11.070;2024-03-08T02:41:35;12.10;;;9.20;;
15358;SDS011;7779;49.596;11.070;2024-03-08T02:44:01;12.60;;;8.87;;
15358;SDS011;7779;49.596;11.070;2024-03-08T02:46:28;13.23;;;9.73;;
15358;SDS011;7779;49.596;11.070;2024-03-08T02:48:55;12.13;;;9.40;;
15358;SDS011;7779;49.596;11.070;2024-03-08T02:51:21;14.20;;;10.07;;
15358;SDS011;7779;49.596;11.070;2024-03-08T02:53:47;14.37;;;10.20;;
15358;SDS011;7779;49.596;11.070;2024-03-08T02:56:14;13.83;;;10.20;;
15358;SDS011;7779;49.596;11.070;2024-03-08T02:58:41;13.07;;;9.90;;
15358;SDS011;7779;49.596;11.070;2024-03-08T03:01:08;14.33;;;10.47;;
15358;SDS011;7779;49.596;11.070;2024-03-08T03:03:35;14.07;;;10.10;;
15358;SDS011;7779;49.596;11.070;2024-03-08T03:06:02;12.20;;;9.50;;
15358;SDS011;7779;49.596;11.070;2024-03-08T03:08:28;14.97;;;11.00;;
15358;SDS011;7779;49.596;11.070;2024-03-08T03:10:53;14.20;;;10.00;;
15358;SDS011;7779;49.596;11.070;2024-03-08T03:13:21;12.40;;;9.33;;
15358;SDS011;7779;49.596;11.070;2024-03-08T03:15:48;14.57;;;9.83;;
15358;SDS011;7779;49.596;11.070;2024-03-08T03:18:14;12.63;;;9.53;;
15358;SDS011;7779;49.596;11.070;2024-03-08T03:20:40;12.27;;;9.07;;
15358;SDS011;7779;49.596;11.070;2024-03-08T03:23:07;12.90;;;9.43;;
15358;SDS011;7779;49.596;11.070;2024-03-08T03:25:34;13.43;;;9.93;;
15358;SDS011;7779;49.596;11.070;2024-03-08T03:28:01;15.97;;;10.40;;
15358;SDS011;7779;49.596;11.070;2024-03-08T03:30:27;12.07;;;9.00;;
15358;SDS011;7779;49.596;11.070;2024-03-08T03:32:58;13.67;;;10.07;;
15358;SDS011;7779;49.596;11.070;2024-03-08T03:35:31;12.97;;;9.80;;
15358;SDS011;7779;49.596;11.070;2024-03-08T03:37:58;13.13;;;9.90;;
15358;SDS011;7779;49.596;11.070;2024-03-08T03:40:31;15.03;;;9.70;;
15358;SDS011;7779;49.596;11.070;2024-03-08T03:42:58;13.30;;;9.53;;
15358;SDS011;7779;49.596;11.070;2024-03-08T03:45:24;13.67;;;10.07;;
15358;SDS011;7779;49.596;11.070;2024-03-08T03:47:50;12.63;;;9.27;;
15358;SDS011;7779;49.596;11.070;2024-03-08T03:50:17;12.33;;;9.20;;
15358;SDS011;7779;49.596;11.070;2024-03-08T03:52:44;13.77;;;9.50;;
15358;SDS011;7779;49.596;11.070;2024-03-08T03:55:12;13.90;;;9.47;;
15358;SDS011;7779;49.596;11.070;2024-03-08T03:57:39;13.93;;;9.90;;
15358;SDS011;7779;49.596;11.070;2024-03-08T04:00:06;11.60;;;8.97;;
15358;SDS011;7779;49.596;11.070;2024-03-08T04:02:39;13.87;;;9.90;;
15358;SDS011;7779;49.596;11.070;2024-03-08T04:05:09;13.83;;;10.53;;
15358;SDS011;7779;49.596;11.070;2024-03-08T04:07:36;13.47;;;9.77;;
15358;SDS011;7779;49.596;11.070;2024-03-08T04:10:03;16.67;;;11.57;;
15358;SDS011;7779;49.596;11.070;2024-03-08T04:12:31;15.27;;;10.27;;
15358;SDS011;7779;49.596;11.070;2024-03-08T04:15:00;13.00;;;10.20;;
15358;SDS011;7779;49.596;11.070;2024-03-08T04:17:26;16.10;;;11.30;;
15358;SDS011;7779;49.596;11.070;2024-03-08T04:19:52;17.23;;;10.93;;
15358;SDS011;7779;49.596;11.070;2024-03-08T04:22:18;14.83;;;11.13;;
15358;SDS011;7779;49.596;11.070;2024-03-08T04:24:45;13.00;;;10.30;;
15358;SDS011;7779;49.596;11.070;2024-03-08T04:27:11;12.30;;;9.67;;
15358;SDS011;7779;49.596;11.070;2024-03-08T04:29:37;16.17;;;10.70;;
15358;SDS011;7779;49.596;11.070;2024-03-08T04:32:03;12.80;;;10.00;;
15358;SDS011;7779;49.596;11.070;2024-03-08T04:34:31;14.87;;;10.87;;
15358;SDS011;7779;49.596;11.070;2024-03-08T04:36:59;13.30;;;9.53;;
15358;SDS011;7779;49.596;11.070;2024-03-08T04:39:27;13.77;;;10.10;;
15358;SDS011;7779;49.596;11.070;2024-03-08T04:42:02;14.70;;;10.47;;
15358;SDS011;7779;49.596;11.070;2024-03-08T04:44:32;14.93;;;10.60;;
15358;SDS011;7779;49.596;11.070;2024-03-08T04:46:58;13.80;;;9.87;;
15358;SDS011;7779;49.596;11.070;2024-03-08T04:49:25;16.57;;;10.53;;
15358;SDS011;7779;49.596;11.070;2024-03-08T04:51:51;14.80;;;10.10;;
15358;SDS011;7779;49.596;11.070;2024-03-08T04:54:16;18.20;;;10.53;;
15358;SDS011;7779;49.596;11.070;2024-03-08T04:56:42;14.00;;;10.47;;
15358;SDS011;7779;49.596;11.070;2024-03-08T04:59:08;15.33;;;11.00;;
15358;SDS011;7779;49.596;11.070;2024-03-08T05:01:34;15.27;;;11.07;;
15358;SDS011;7779;49.596;11.070;2024-03-08T05:04:03;15.03;;;10.90;;
15358;SDS011;7779;49.596;11.070;2024-03-08T05:06:29;15.93;;;11.37;;
15358;SDS011;7779;49.596;11.070;2024-03-08T05:08:55;15.33;;;11.17;;
15358;SDS011;7779;49.596;11.070;2024-03-08T05:11:21;15.43;;;11.10;;
15358;SDS011;7779;49.596;11.070;2024-03-08T05:13:47;16.83;;;11.97;;
15358;SDS011;7779;49.596;11.070;2024-03-08T05:16:13;17.70;;;11.57;;
15358;SDS011;7779;49.596;11.070;2024-03-08T05:18:40;15.90;;;11.73;;
15358;SDS011;7779;49.596;11.070;2024-03-08T05:21:07;15.77;;;11.50;;
15358;SDS011;7779;49.596;11.070;2024-03-08T05:23:34;15.80;;;11.90;;
15358;SDS011;7779;49.596;11.070;2024-03-08T05:26:00;18.40;;;12.53;;
15358;SDS011;7779;49.596;11.070;2024-03-08T05:28:26;16.27;;;11.20;;
15358;SDS011;7779;49.596;11.070;2024-03-08T05:30:51;18.67;;;14.57;;
15358;SDS011;7779;49.596;11.070;2024-03-08T05:33:17;17.90;;;13.63;;
15358;SDS011;7779;49.596;11.070;2024-03-08T05:35:44;19.17;;;13.67;;
15358;SDS011;7779;49.596;11.070;2024-03-08T05:38:10;18.93;;;13.13;;
15358;SDS011;7779;49.596;11.070;2024-03-08T05:40:37;18.37;;;12.87;;
15358;SDS011;7779;49.596;11.070;2024-03-08T05:43:03;16.17;;;13.03;;
15358;SDS011;7779;49.596;11.070;2024-03-08T05:45:30;16.17;;;12.70;;
15358;SDS011;7779;49.596;11.070;2024-03-08T05:47:56;15.83;;;12.53;;
15358;SDS011;7779;49.596;11.070;2024-03-08T05:50:21;16.37;;;12.70;;
15358;SDS011;7779;49.596;11.070;2024-03-08T05:52:47;18.33;;;13.43;;
15358;SDS011;7779;49.596;11.070;2024-03-08T05:55:13;19.03;;;13.63;;
15358;SDS011;7779;49.596;11.070;2024-03-08T05:57:41;16.67;;;12.37;;
15358;SDS011;7779;49.596;11.070;2024-03-08T06:00:08;16.07;;;12.17;;
15358;SDS011;7779;49.596;11.070;2024-03-08T06:02:40;17.70;;;12.17;;
15358;SDS011;7779;49.596;11.070;2024-03-08T06:05:08;16.70;;;11.90;;
15358;SDS011;7779;49.596;11.070;2024-03-08T06:07:37;17.60;;;12.40;;
15358;SDS011;7779;49.596;11.070;2024-03-08T06:10:06;15.67;;;12.47;;
15358;SDS011;7779;49.596;11.070;2024-03-08T06:12:38;17.47;;;12.40;;
15358;SDS011;7779;49.596;11.070;2024-03-08T06:15:07;17.77;;;12.10;;
15358;SDS011;7779;49.596;11.070;2024-03-08T06:17:34;16.00;;;12.20;;
15358;SDS011;7779;49.596;11.070;2024-03-08T06:20:03;19.37;;;12.97;;
15358;SDS011;7779;49.596;11.070;2024-03-08T06:22:35;17.57;;;13.17;;
15358;SDS011;7779;49.596;11.070;2024-03-08T06:25:05;18.30;;;13.13;;
15358;SDS011;7779;49.596;11.070;2024-03-08T06:27:39;17.67;;;12.80;;
15358;SDS011;7779;49.596;11.070;2024-03-08T06:30:07;19.40;;;13.77;;
15358;SDS011;7779;49.596;11.070;2024-03-08T06:32:35;15.87;;;12.87;;
15358;SDS011;7779;49.596;11.070;2024-03-08T06:35:06;18.57;;;13.20;;
15358;SDS011;7779;49.596;11.070;2024-03-08T06:37:33;22.07;;;14.60;;
15358;SDS011;7779;49.596;11.070;2024-03-08T06:39:59;18.47;;;14.00;;
15358;SDS011;7779;49.596;11.070;2024-03-08T06:42:26;18.87;;;13.57;;
15358;SDS011;7779;49.596;11.070;2024-03-08T06:44:53;19.60;;;14.43;;
15358;SDS011;7779;49.596;11.070;2024-03-08T06:47:21;19.93;;;13.43;;
15358;SDS011;7779;49.596;11.070;2024-03-08T06:49:50;21.07;;;14.50;;
15358;SDS011;7779;49.596;11.070;2024-03-08T06:52:17;18.70;;;14.00;;
15358;SDS011;7779;49.596;11.070;2024-03-08T06:54:43;20.07;;;14.07;;
15358;SDS011;7779;49.596;11.070;2024-03-08T06:57:09;19.27;;;14.00;;
15358;SDS011;7779;49.596;11.070;2024-03-08T06:59:35;19.53;;;13.40;;
15358;SDS011;7779;49.596;11.070;2024-03-08T07:02:04;20.37;;;13.90;;
15358;SDS011;7779;49.596;11.070;2024-03-08T07:04:30;21.80;;;14.37;;
15358;SDS011;7779;49.596;11.070;2024-03-08T07:06:56;19.33;;;13.23;;
15358;SDS011;7779;49.596;11.070;2024-03-08T07:09:22;19.00;;;14.10;;
15358;SDS011;7779;49.596;11.070;2024-03-08T07:11:51;21.67;;;14.03;;
15358;SDS011;7779;49.596;11.070;2024-03-08T07:14:22;21.33;;;13.60;;
15358;SDS011;7779;49.596;11.070;2024-03-08T07:16:49;18.90;;;13.73;;
15358;SDS011;7779;49.596;11.070;2024-03-08T07:19:16;20.20;;;14.00;;
15358;SDS011;7779;49.596;11.070;2024-03-08T07:21:43;20.00;;;14.17;;
15358;SDS011;7779;49.596;11.070;2024-03-08T07:24:09;19.93;;;14.27;;
15358;SDS011;7779;49.596;11.070;2024-03-08T07:26:45;21.77;;;13.67;;
15358;SDS011;7779;49.596;11.070;2024-03-08T07:29:15;18.30;;;13.70;;
15358;SDS011;7779;49.596;11.070;2024-03-08T07:31:41;19.03;;;13.43;;
15358;SDS011;7779;49.596;11.070;2024-03-08T07:34:07;19.13;;;13.73;;
15358;SDS011;7779;49.596;11.070;2024-03-08T07:36:35;19.57;;;14.17;;
15358;SDS011;7779;49.596;11.070;2024-03-08T07:39:01;23.23;;;14.87;;
15358;SDS011;7779;49.596;11.070;2024-03-08T07:41:27;20.17;;;14.27;;
15358;SDS011;7779;49.596;11.070;2024-03-08T07:43:57;20.07;;;13.90;;
15358;SDS011;7779;49.596;11.070;2024-03-08T07:46:23;20.50;;;14.33;;
15358;SDS011;7779;49.596;11.070;2024-03-08T07:48:49;18.10;;;13.33;;
15358;SDS011;7779;49.596;11.070;2024-03-08T07:51:17;19.40;;;14.07;;
15358;SDS011;7779;49.596;11.070;2024-03-08T07:53:43;20.57;;;14.00;;
15358;SDS011;7779;49.596;11.070;2024-03-08T07:56:09;18.30;;;12.73;;
15358;SDS011;7779;49.596;11.070;2024-03-08T07:58:38;18.23;;;14.13;;
15358;SDS011;7779;49.596;11.070;2024-03-08T08:01:05;19.13;;;13.47;;
15358;SDS011;7779;49.596;11.070;2024-03-08T08:03:32;19.07;;;14.33;;
15358;SDS011;7779;49.596;11.070;2024-03-08T08:05:57;19.13;;;13.97;;
15358;SDS011;7779;49.596;11.070;2024-03-08T08:08:23;17.33;;;13.20;;
15358;SDS011;7779;49.596;11.070;2024-03-08T08:10:51;18.97;;;14.70;;
15358;SDS011;7779;49.596;11.070;2024-03-08T08:13:16;21.53;;;14.50;;
15358;SDS011;7779;49.596;11.070;2024-03-08T08:15:43;18.43;;;13.47;;
15358;SDS011;7779;49.596;11.070;2024-03-08T08:18:09;19.10;;;14.10;;
15358;SDS011;7779;49.596;11.070;2024-03-08T08:20:35;18.77;;;13.53;;
15358;SDS011;7779;49.596;11.070;2024-03-08T08:23:01;18.30;;;13.23;;
15358;SDS011;7779;49.596;11.070;2024-03-08T08:25:26;19.17;;;13.30;;
15358;SDS011;7779;49.596;11.070;2024-03-08T08:27:52;23.43;;;14.17;;
15358;SDS011;7779;49.596;11.070;2024-03-08T08:30:18;20.40;;;13.57;;
15358;SDS011;7779;49.596;11.070;2024-03-08T08:32:45;18.40;;;13.10;;
15358;SDS011;7779;49.596;11.070;2024-03-08T08:35:12;21.20;;;13.83;;
15358;SDS011;7779;49.596;11.070;2024-03-08T08:37:41;18.90;;;13.00;;
15358;SDS011;7779;49.596;11.070;2024-03-08T08:40:07;19.57;;;13.57;;
15358;SDS011;7779;49.596;11.070;2024-03-08T08:42:39;18.43;;;12.80;;
15358;SDS011;7779;49.596;11.070;2024-03-08T08:45:06;16.57;;;12.37;;
15358;SDS011;7779;49.596;11.070;2024-03-08T08:47:34;19.53;;;14.10;;
15358;SDS011;7779;49.596;11.070;2024-03-08T08:50:03;17.27;;;13.07;;
15358;SDS011;7779;49.596;11.070;2024-03-08T08:52:32;16.13;;;12.37;;
15358;SDS011;7779;49.596;11.070;2024-03-08T08:54:59;17.47;;;12.93;;
15358;SDS011;7779;49.596;11.070;2024-03-08T08:57:25;17.10;;;13.20;;
15358;SDS011;7779;49.596;11.070;2024-03-08T08:59:53;16.43;;;12.47;;
15358;SDS011;7779;49.596;11.070;2024-03-08T09:02:18;16.23;;;12.13;;
15358;SDS011;7779;49.596;11.070;2024-03-08T09:04:46;18.63;;;12.90;;
15358;SDS011;7779;49.596;11.070;2024-03-08T09:07:13;15.20;;;11.23;;
15358;SDS011;7779;49.596;11.070;2024-03-08T09:09:39;15.47;;;11.37;;
15358;SDS011;7779;49.596;11.070;2024-03-08T09:12:07;14.43;;;10.43;;
15358;SDS011;7779;49.596;11.070;2024-03-08T09:14:32;16.17;;;11.07;;
15358;SDS011;7779;49.596;11.070;2024-03-08T09:16:58;15.73;;;11.07;;
15358;SDS011;7779;49.596;11.070;2024-03-08T09:19:24;14.77;;;10.67;;
15358;SDS011;7779;49.596;11.070;2024-03-08T09:21:51;13.57;;;10.07;;
15358;SDS011;7779;49.596;11.070;2024-03-08T09:24:17;15.47;;;11.30;;
15358;SDS011;7779;49.596;11.070;2024-03-08T09:26:42;14.33;;;10.80;;
15358;SDS011;7779;49.596;11.070;2024-03-08T09:29:08;12.47;;;10.33;;
15358;SDS011;7779;49.596;11.070;2024-03-08T09:31:35;14.13;;;10.07;;
15358;SDS011;7779;49.596;11.070;2024-03-08T09:34:03;14.37;;;10.40;;
15358;SDS011;7779;49.596;11.070;2024-03-08T09:36:29;13.10;;;10.10;;
15358;SDS011;7779;49.596;11.070;2024-03-08T09:38:55;16.03;;;11.33;;
15358;SDS011;7779;49.596;11.070;2024-03-08T09:41:20;14.70;;;11.13;;
15358;SDS011;7779;49.596;11.070;2024-03-08T09:43:46;15.13;;;10.70;;
15358;SDS011;7779;49.596;11.070;2024-03-08T09:46:12;14.27;;;10.57;;
15358;SDS011;7779;49.596;11.070;2024-03-08T09:48:40;13.77;;;10.67;;
15358;SDS011;7779;49.596;11.070;2024-03-08T09:51:06;15.17;;;10.13;;
15358;SDS011;7779;49.596;11.070;2024-03-08T09:53:33;13.90;;;10.83;;
15358;SDS011;7779;49.596;11.070;2024-03-08T09:56:00;13.37;;;10.03;;
15358;SDS011;7779;49.596;11.070;2024-03-08T09:58:28;13.10;;;10.23;;
15358;SDS011;7779;49.596;11.070;2024-03-08T10:01:00;13.57;;;10.53;;
15358;SDS011;7779;49.596;11.070;2024-03-08T10:03:27;14.17;;;10.50;;
15358;SDS011;7779;49.596;11.070;2024-03-08T10:05:55;13.63;;;10.50;;
15358;SDS011;7779;49.596;11.070;2024-03-08T10:08:25;14.67;;;10.67;;
15358;SDS011;7779;49.596;11.070;2024-03-08T10:10:55;13.13;;;10.30;;
15358;SDS011;7779;49.596;11.070;2024-03-08T10:13:25;13.83;;;10.07;;
15358;SDS011;7779;49.596;11.070;2024-03-08T10:15:54;12.57;;;9.73;;
15358;SDS011;7779;49.596;11.070;2024-03-08T10:18:20;14.53;;;10.53;;
15358;SDS011;7779;49.596;11.070;2024-03-08T10:21:01;12.67;;;10.43;;
15358;SDS011;7779;49.596;11.070;2024-03-08T10:23:32;12.83;;;9.73;;
15358;SDS011;7779;49.596;11.070;2024-03-08T10:26:14;11.83;;;9.70;;
15358;SDS011;7779;49.596;11.070;2024-03-08T10:28:46;11.70;;;9.50;;
15358;SDS011;7779;49.596;11.070;2024-03-08T10:31:14;12.47;;;9.67;;
15358;SDS011;7779;49.596;11.070;2024-03-08T10:33:41;11.93;;;9.30;;
15358;SDS011;7779;49.596;11.070;2024-03-08T10:36:07;13.00;;;9.10;;
15358;SDS011;7779;49.596;11.070;2024-03-08T10:38:38;13.63;;;9.13;;
15358;SDS011;7779;49.596;11.070;2024-03-08T10:41:06;11.03;;;8.43;;
15358;SDS011;7779;49.596;11.070;2024-03-08T10:46:39;12.07;;;8.73;;
15358;SDS011;7779;49.596;11.070;2024-03-08T10:49:37;11.50;;;8.43;;
15358;SDS011;7779;49.596;11.070;2024-03-08T10:52:07;11.13;;;8.17;;
15358;SDS011;7779;49.596;11.070;2024-03-08T10:54:37;11.30;;;8.67;;
15358;SDS011;7779;49.596;11.070;2024-03-08T10:57:05;12.67;;;9.00;;
15358;SDS011;7779;49.596;11.070;2024-03-08T10:59:33;11.00;;;8.73;;
15358;SDS011;7779;49.596;11.070;2024-03-08T11:02:00;9.90;;;7.73;;
15358;SDS011;7779;49.596;11.070;2024-03-08T11:04:26;11.27;;;8.53;;
15358;SDS011;7779;49.596;11.070;2024-03-08T11:06:54;13.87;;;8.87;;
15358;SDS011;7779;49.596;11.070;2024-03-08T11:09:37;10.90;;;8.47;;
15358;SDS011;7779;49.596;11.070;2024-03-08T11:14:55;9.70;;;7.63;;
15358;SDS011;7779;49.596;11.070;2024-03-08T11:19:59;10.60;;;8.33;;
15358;SDS011;7779;49.596;11.070;2024-03-08T11:22:31;10.00;;;7.73;;
15358;SDS011;7779;49.596;11.070;2024-03-08T11:25:02;9.90;;;7.93;;
15358;SDS011;7779;49.596;11.070;2024-03-08T11:27:34;16.83;;;10.53;;
15358;SDS011;7779;49.596;11.070;2024-03-08T11:30:03;14.00;;;9.70;;
15358;SDS011;7779;49.596;11.070;2024-03-08T11:32:37;11.83;;;8.60;;
15358;SDS011;7779;49.596;11.070;2024-03-08T11:35:36;15.03;;;9.63;;
15358;SDS011;7779;49.596;11.070;2024-03-08T11:37:57;11.07;;;8.60;;
15358;SDS011;7779;49.596;11.070;2024-03-08T11:40:25;9.80;;;7.87;;
15358;SDS011;7779;49.596;11.070;2024-03-08T11:42:51;10.00;;;7.97;;
15358;SDS011;7779;49.596;11.070;2024-03-08T11:45:17;11.20;;;8.30;;
15358;SDS011;7779;49.596;11.070;2024-03-08T11:47:46;10.50;;;7.23;;
15358;SDS011;7779;49.596;11.070;2024-03-08T11:50:15;9.53;;;7.60;;
15358;SDS011;7779;49.596;11.070;2024-03-08T11:52:41;8.73;;;7.17;;
15358;SDS011;7779;49.596;11.070;2024-03-08T11:55:08;11.47;;;7.87;;
15358;SDS011;7779;49.596;11.070;2024-03-08T11:57:37;11.97;;;7.83;;
15358;SDS011;7779;49.596;11.070;2024-03-08T12:00:03;9.70;;;7.60;;
15358;SDS011;7779;49.596;11.070;2024-03-08T12:02:35;9.50;;;7.83;;
15358;SDS011;7779;49.596;11.070;2024-03-08T12:05:03;10.03;;;7.50;;
15358;SDS011;7779;49.596;11.070;2024-03-08T12:07:31;10.47;;;7.63;;
15358;SDS011;7779;49.596;11.070;2024-03-08T12:10:16;9.97;;;7.83;;
15358;SDS011;7779;49.596;11.070;2024-03-08T12:12:48;15.93;;;8.10;;
15358;SDS011;7779;49.596;11.070;2024-03-08T12:15:19;9.23;;;7.87;;
15358;SDS011;7779;49.596;11.070;2024-03-08T12:17:49;10.97;;;7.23;;
15358;SDS011;7779;49.596;11.070;2024-03-08T12:20:18;9.40;;;7.33;;
15358;SDS011;7779;49.596;11.070;2024-03-08T12:22:54;9.53;;;7.37;;
15358;SDS011;7779;49.596;11.070;2024-03-08T12:25:27;9.23;;;7.30;;
15358;SDS011;7779;49.596;11.070;2024-03-08T12:27:56;10.07;;;7.83;;
15358;SDS011;7779;49.596;11.070;2024-03-08T12:30:35;9.00;;;7.37;;
15358;SDS011;7779;49.596;11.070;2024-03-08T12:33:11;7.30;;;6.20;;
15358;SDS011;7779;49.596;11.070;2024-03-08T12:35:37;8.27;;;6.37;;
15358;SDS011;7779;49.596;11.070;2024-03-08T12:38:04;9.67;;;6.67;;
15358;SDS011;7779;49.596;11.070;2024-03-08T12:40:32;9.30;;;7.10;;
15358;SDS011;7779;49.596;11.070;2024-03-08T12:42:59;9.67;;;7.00;;
15358;SDS011;7779;49.596;11.070;2024-03-08T12:45:28;8.90;;;7.43;;
15358;SDS011;7779;49.596;11.070;2024-03-08T12:47:54;8.33;;;6.87;;
15358;SDS011;7779;49.596;11.070;2024-03-08T12:50:20;9.23;;;7.57;;
15358;SDS011;7779;49.596;11.070;2024-03-08T12:52:48;9.23;;;6.90;;
15358;SDS011;7779;49.596;11.070;2024-03-08T12:55:14;8.07;;;6.43;;
15358;SDS011;7779;49.596;11.070;2024-03-08T12:57:43;7.83;;;6.23;;
15358;SDS011;7779;49.596;11.070;2024-03-08T13:00:10;8.50;;;6.63;;
15358;SDS011;7779;49.596;11.070;2024-03-08T13:02:47;8.53;;;6.70;;
15358;SDS011;7779;49.596;11.070;2024-03-08T13:05:13;8.47;;;6.73;;
15358;SDS011;7779;49.596;11.070;2024-03-08T13:07:40;8.33;;;6.63;;
15358;SDS011;7779;49.596;11.070;2024-03-08T13:10:11;8.87;;;6.60;;
15358;SDS011;7779;49.596;11.070;2024-03-08T13:12:44;9.27;;;7.27;;
15358;SDS011;7779;49.596;11.070;2024-03-08T13:15:10;7.60;;;5.87;;
15358;SDS011;7779;49.596;11.070;2024-03-08T13:17:40;7.87;;;6.40;;
15358;SDS011;7779;49.596;11.070;2024-03-08T13:20:07;7.13;;;6.00;;
15358;SDS011;7779;49.596;11.070;2024-03-08T13:22:35;9.90;;;6.20;;
15358;SDS011;7779;49.596;11.070;2024-03-08T13:25:01;8.07;;;6.50;;
15358;SDS011;7779;49.596;11.070;2024-03-08T13:27:28;7.10;;;5.97;;
15358;SDS011;7779;49.596;11.070;2024-03-08T13:29:54;6.90;;;5.70;;
15358;SDS011;7779;49.596;11.070;2024-03-08T13:32:19;7.30;;;5.73;;
15358;SDS011;7779;49.596;11.070;2024-03-08T13:34:45;7.83;;;5.60;;
15358;SDS011;7779;49.596;11.070;2024-03-08T13:37:16;6.90;;;5.53;;
15358;SDS011;7779;49.596;11.070;2024-03-08T13:39:42;7.10;;;5.60;;
15358;SDS011;7779;49.596;11.070;2024-03-08T13:42:14;7.87;;;5.90;;
15358;SDS011;7779;49.596;11.070;2024-03-08T13:44:47;8.27;;;6.83;;
15358;SDS011;7779;49.596;11.070;2024-03-08T13:47:18;9.23;;;7.17;;
15358;SDS011;7779;49.596;11.070;2024-03-08T13:49:44;8.07;;;6.53;;
15358;SDS011;7779;49.596;11.070;2024-03-08T13:52:10;8.33;;;6.77;;
15358;SDS011;7779;49.596;11.070;2024-03-08T13:54:38;10.00;;;6.97;;
15358;SDS011;7779;49.596;11.070;2024-03-08T13:57:03;8.13;;;6.53;;
15358;SDS011;7779;49.596;11.070;2024-03-08T13:59:30;8.13;;;7.10;;
15358;SDS011;7779;49.596;11.070;2024-03-08T14:01:58;8.00;;;6.70;;
15358;SDS011;7779;49.596;11.070;2024-03-08T14:04:26;7.80;;;6.33;;
15358;SDS011;7779;49.596;11.070;2024-03-08T14:06:55;8.00;;;6.80;;
15358;SDS011;7779;49.596;11.070;2024-03-08T14:09:24;8.07;;;6.60;;
15358;SDS011;7779;49.596;11.070;2024-03-08T14:11:57;7.70;;;5.77;;
15358;SDS011;7779;49.596;11.070;2024-03-08T14:14:23;6.90;;;6.03;;
15358;SDS011;7779;49.596;11.070;2024-03-08T14:16:49;8.37;;;7.07;;
15358;SDS011;7779;49.596;11.070;2024-03-08T14:19:20;7.57;;;6.40;;
15358;SDS011;7779;49.596;11.070;2024-03-08T14:21:46;7.03;;;6.30;;
15358;SDS011;7779;49.596;11.070;2024-03-08T14:24:13;7.33;;;6.03;;
15358;SDS011;7779;49.596;11.070;2024-03-08T14:26:43;6.90;;;5.50;;
15358;SDS011;7779;49.596;11.070;2024-03-08T14:29:10;6.37;;;5.40;;
15358;SDS011;7779;49.596;11.070;2024-03-08T14:31:36;7.33;;;5.63;;
15358;SDS011;7779;49.596;11.070;2024-03-08T14:34:02;5.90;;;5.23;;
15358;SDS011;7779;49.596;11.070;2024-03-08T14:36:28;7.13;;;5.93;;
15358;SDS011;7779;49.596;11.070;2024-03-08T14:38:55;7.03;;;5.60;;
15358;SDS011;7779;49.596;11.070;2024-03-08T14:41:21;7.53;;;5.87;;